Flight Track Log - Related Links

Times and Time Zones

All times are in EDT time to prevent confusion due to time zone crossing. See the N960DL flight status page for this flight to view local times or setup timezone preferences in your user account.

Time Position Orientation Groundspeed Altitude Reporting Facility
EDT Latitude Longitude Course Direction KTS MPH feet Rate Location/Type
Wed 04:26:52 PM 33.6497 -84.3608 246° West 433 498 2,800  Level Atlanta Center
Wed 04:27:10 PM 33.6667 -84.3333 53° Northeast 217 250 3,500 2,571 Climbing Atlanta TRACON
Wed 04:28:16 PM 33.7167 -84.2833 40° Northeast 277 319 6,400 2,556 Climbing Atlanta TRACON
Wed 04:29:00 PM 33.8000 -84.5332 270° West  Level FlightAware Approximate
Wed 04:29:52 PM 33.8086 -84.3464 330° Northwest 279 321 10,400  Level Atlanta Center
Wed 04:30:00 PM 33.7471 -84.6589 234° Southwest  Level FlightAware Approximate
Wed 04:30:52 PM 33.8081 -84.4464 270° West 288 331 11,600  Level Atlanta Center
Wed 04:31:00 PM 33.6752 -84.7759 234° Southwest  Level FlightAware Approximate
Wed 04:31:52 PM 33.8014 -84.5839 267° West 369 425 13,300  Level Atlanta Center
Wed 04:32:00 PM 33.6178 -84.9030 246° West  Level FlightAware Approximate
Wed 04:32:52 PM 33.7383 -84.6908 235° Southwest 380 437 15,700  Level Atlanta Center
Wed 04:33:52 PM 33.6708 -84.8225 238° Southwest 407 468 17,600 2,200 Climbing Atlanta Center
Wed 04:34:52 PM 33.6072 -84.9517 239° Southwest 430 495 20,100 2,800 Climbing Atlanta Center
Wed 04:35:52 PM 33.5622 -85.0808 247° West 437 503 23,200 2,200 Climbing Atlanta Center
Wed 04:36:52 PM 33.5175 -85.2075 247° West 413 475 24,500 1,250 Climbing Atlanta Center
Wed 04:37:52 PM 33.4931 -85.3417 258° West 413 475 25,700 1,200 Climbing Atlanta Center
Wed 04:38:52 PM 33.4728 -85.4833 260° West 433 498 26,900 1,150 Climbing Atlanta Center
Wed 04:39:52 PM 33.4500 -85.6247 259° West 433 498 28,000 950 Climbing Atlanta Center
Wed 04:40:52 PM 33.4294 -85.7736 261° West 440 506 28,800 800 Climbing Atlanta Center
Wed 04:41:52 PM 33.4022 -85.9125 257° West 440 506 29,600 950 Climbing Atlanta Center
Wed 04:42:52 PM 33.3811 -86.0664 261° West 457 526 30,700 1,200 Climbing Atlanta Center
Wed 04:43:52 PM 33.3597 -86.2075 260° West 457 526 32,000 1,550 Climbing Atlanta Center
Wed 04:44:52 PM 33.3364 -86.3461 259° West 447 514 33,800 1,000 Climbing Atlanta Center
Wed 04:45:52 PM 33.3131 -86.4747 258° West 424 488 34,000 100 Climbing Atlanta Center
Wed 04:46:52 PM 33.2914 -86.6108 259° West 418 481 34,000  Level Atlanta Center
Wed 04:47:52 PM 33.2744 -86.7322 261° West 418 481 34,000  Level Atlanta Center
Wed 04:48:52 PM 33.2525 -86.8656 259° West 427 491 34,000  Level Atlanta Center
Wed 04:49:52 PM 33.2097 -87.0058 250° West 427 491 34,000  Level Atlanta Center
Wed 04:50:52 PM 33.1525 -87.1206 239° Southwest 418 481 34,000  Level Atlanta Center
Wed 04:51:52 PM 33.1158 -87.2506 251° West 418 481 34,000  Level Atlanta Center
Wed 04:53:46 PM 33.2053 -87.5244 291° West 427 491 34,000  Level Memphis Center
Wed 04:54:46 PM 33.2522 -87.6619 292° West 443 510 34,000  Level Memphis Center
Wed 04:55:45 PM 33.2967 -87.7972 291° West 443 510 34,000  Level Memphis Center
Wed 04:56:45 PM 33.3414 -87.9353 291° West 443 510 34,000  Level Memphis Center
Wed 04:57:46 PM 33.3878 -88.0733 292° West 443 510 34,000  Level Memphis Center
Wed 04:58:45 PM 33.4383 -88.2114 294° West 448 516 34,000  Level Memphis Center
Wed 04:59:45 PM 33.4822 -88.3497 291° West 448 516 34,000  Level Memphis Center
Wed 05:00:46 PM 33.5283 -88.4858 292° West 448 516 34,000  Level Memphis Center
Wed 05:01:46 PM 33.5700 -88.6269 290° West 448 516 34,000  Level Memphis Center
Wed 05:02:46 PM 33.6156 -88.7683 291° West 448 516 34,000  Level Memphis Center
Wed 05:03:45 PM 33.6611 -88.8947 293° West 453 521 34,000  Level Memphis Center
Wed 05:04:46 PM 33.7044 -89.0314 291° West 448 516 34,000  Level Memphis Center
Wed 05:05:46 PM 33.7539 -89.1731 293° West 448 516 34,000  Level Memphis Center
Wed 05:06:46 PM 33.7967 -89.3122 290° West 448 516 34,000  Level Memphis Center
Wed 05:07:45 PM 33.8439 -89.4669 290° West 448 516 34,000  Level Memphis Center
Wed 05:08:46 PM 33.8886 -89.6064 291° West 448 516 34,000  Level Memphis Center
Wed 05:09:45 PM 33.9289 -89.7339 291° West 448 516 34,000  Level Memphis Center
Wed 05:10:46 PM 33.9736 -89.8789 290° West 453 521 34,000  Level Memphis Center
Wed 05:11:45 PM 34.0200 -90.0189 292° West 453 521 34,000  Level Memphis Center
Wed 05:12:45 PM 34.0619 -90.1517 291° West 453 521 34,000  Level Memphis Center
Wed 05:13:45 PM 34.1122 -90.3094 291° West 453 521 34,000  Level Memphis Center
Wed 05:14:45 PM 34.1622 -90.4700 291° West 453 521 34,000  Level Memphis Center
Wed 05:15:45 PM 34.2058 -90.6133 290° West 458 527 34,000  Level Memphis Center
Wed 05:16:45 PM 34.2117 -90.7667 273° West 458 527 34,000  Level Memphis Center
Wed 05:17:45 PM 34.2008 -90.9172 265° West 453 521 34,000  Level Memphis Center
Wed 05:18:45 PM 34.1936 -91.0678 267° West 459 528 34,000 100 Level Memphis Center
Wed 05:19:45 PM 34.1864 -91.2258 267° West 459 528 34,200 400 Climbing Memphis Center
Wed 05:20:45 PM 34.1292 -91.3533 242° Southwest 443 510 34,800 650 Climbing Memphis Center
Wed 05:21:45 PM 34.0531 -91.4678 231° Southwest 438 504 35,500 450 Climbing Memphis Center
Wed 05:22:45 PM 33.9853 -91.5672 231° Southwest 432 497 35,700 169 Climbing Memphis Center
Wed 05:24:42 PM 33.8347 -91.7928 231° Southwest 433 498 36,000 102 Climbing Fort Worth Center
Wed 05:25:42 PM 33.7581 -91.9025 230° Southwest 438 504 36,000  Level Fort Worth Center
Wed 05:26:42 PM 33.6817 -92.0147 231° Southwest 444 511 36,000  Level Fort Worth Center
Wed 05:27:42 PM 33.6031 -92.1292 231° Southwest 444 511 36,000  Level Fort Worth Center
Wed 05:28:42 PM 33.5283 -92.2383 231° Southwest 439 505 36,000  Level Fort Worth Center
Wed 05:29:42 PM 33.4514 -92.3472 230° Southwest 439 505 36,000  Level Fort Worth Center
Wed 05:30:42 PM 33.3586 -92.4297 217° Southwest 420 483 36,000  Level Fort Worth Center
Wed 05:31:42 PM 33.2406 -92.4489 188° South 401 461 36,000  Level Fort Worth Center
Wed 05:32:42 PM 33.1264 -92.4675 188° South 408 470 36,000  Level Fort Worth Center
Wed 05:33:42 PM 33.0103 -92.4864 188° South 418 481 36,000  Level Fort Worth Center
Wed 05:34:42 PM 32.8942 -92.5078 189° South 423 487 36,000  Level Fort Worth Center
Wed 05:35:42 PM 32.7781 -92.5264 188° South 423 487 36,000  Level Fort Worth Center
Wed 05:37:21 PM 32.6028 -92.5614 190° South 433 498 36,000  Level Houston Center
Wed 05:38:23 PM 32.4614 -92.5869 189° South 432 497 36,000  Level Houston Center
Wed 05:39:26 PM 32.3422 -92.6178 192° South 438 504 36,000  Level Houston Center
Wed 05:40:28 PM 32.2253 -92.6653 199° South 439 505 36,000  Level Houston Center
Wed 05:41:30 PM 32.1258 -92.7436 214° Southwest 443 510 36,000  Level Houston Center
Wed 05:42:32 PM 32.0386 -92.8378 222° Southwest 439 505 36,000  Level Houston Center
Wed 05:43:34 PM 31.9500 -92.9375 224° Southwest 436 502 36,000  Level Houston Center
Wed 05:44:36 PM 31.8467 -93.0553 224° Southwest 435 501 36,000  Level Houston Center
Wed 05:45:38 PM 31.7569 -93.1514 222° Southwest 439 505 36,000  Level Houston Center
Wed 05:46:40 PM 31.6683 -93.2483 223° Southwest 438 504 36,000  Level Houston Center
Wed 05:47:42 PM 31.5833 -93.3475 225° Southwest 434 499 36,000  Level Houston Center
Wed 05:48:45 PM 31.4950 -93.4450 223° Southwest 437 503 36,000  Level Houston Center
Wed 05:49:47 PM 31.3889 -93.5625 223° Southwest 439 505 36,000  Level Houston Center
Wed 05:50:49 PM 31.3042 -93.6525 222° Southwest 441 507 36,000  Level Houston Center
Wed 05:51:51 PM 31.2075 -93.7564 223° Southwest 441 507 36,000 -290 Level Houston Center
Wed 05:52:53 PM 31.1186 -93.8536 223° Southwest 441 507 35,400 -1,248 Descending Houston Center
Wed 05:53:56 PM 31.0142 -93.9669 223° Southwest 443 510 33,400 -2,419 Descending Houston Center
Wed 05:54:57 PM 30.9211 -94.0661 222° Southwest 440 506 30,400 -3,220 Descending Houston Center
Wed 05:55:59 PM 30.8283 -94.1653 223° Southwest 447 514 26,800 -2,661 Descending Houston Center
Wed 05:57:01 PM 30.7311 -94.2667 222° Southwest 463 533 24,900 -1,355 Descending Houston Center
Wed 05:58:03 PM 30.6394 -94.3661 223° Southwest 457 526 24,000 -1,452 Descending Houston Center
Wed 05:59:05 PM 30.5525 -94.4600 223° Southwest 439 505 21,900 -2,745 Descending Houston Center
Wed 05:59:37 PM 30.4917 -94.5272 224° Southwest 422 486 19,700 -2,903 Descending Houston Center
Wed 06:00:07 PM 30.4697 -94.5600 232° Southwest 420 483 18,900 -2,786 Descending Houston Center
Wed 06:00:33 PM 30.4275 -94.6253 233° Southwest 410 472 17,100 -2,710 Descending Houston Center
Wed 06:01:09 PM 30.3983 -94.6714 234° Southwest 410 472 16,100 -1,701 Descending Houston Center
Wed 06:01:40 PM 30.3583 -94.7336 233° Southwest 395 455 15,200 -1,548 Descending Houston Center
Wed 06:02:11 PM 30.3358 -94.7686 233° Southwest 380 437 14,500 -2,036 Descending Houston Center
Wed 06:02:36 PM 30.3033 -94.8181 233° Southwest 346 398 13,300 -1,452 Descending Houston Center
Wed 06:03:13 PM 30.2650 -94.8747 232° Southwest 349 402 13,000 -492 Descending Houston Center
Wed 06:03:37 PM 30.2389 -94.9133 232° Southwest 343 395 12,800 -1,355 Descending Houston Center
Wed 06:04:15 PM 30.2081 -94.9639 235° Southwest 346 398 11,600 -1,967 Descending Houston Center
Wed 06:04:38 PM 30.1822 -95.0025 232° Southwest 344 396 10,800 -1,524 Descending Houston Center
Wed 06:05:18 PM 30.1522 -95.0514 235° Southwest 341 392 10,000 -787 Descending Houston Center
Wed 06:05:39 PM 30.1181 -95.0806 216° Southwest 348 400 10,000  Level Houston Center
Wed 06:06:20 PM 30.0661 -95.1022 200° South 357 411 10,000  Level Houston Center
Wed 06:06:35 PM 30.0333 -95.1178 202° Southwest 355 409 10,000 -387 Level Houston Center
Wed 06:07:22 PM 29.9833 -95.1386 200° South 319 367 9,600 -806 Descending Houston Center
Wed 06:07:42 PM 29.9464 -95.1550 201° Southwest 271 312 9,100 -1,161 Descending Houston Center
Wed 06:08:24 PM 29.9008 -95.1753 201° Southwest 266 306 8,400 -1,082 Descending Houston Center
Wed 06:08:43 PM 29.8778 -95.1850 200° South 251 289 8,000 -1,258 Descending Houston Center
Wed 06:09:26 PM 29.8367 -95.2044 202° Southwest 253 291 7,100 -1,279 Descending Houston Center
Wed 06:09:44 PM 29.8133 -95.2144 200° South 246 283 6,700 -968 Descending Houston Center
Wed 06:10:28 PM 29.7717 -95.2325 201° Southwest 251 289 6,100 -689 Descending Houston Center
Wed 06:10:45 PM 29.7486 -95.2417 199° South 250 288 6,000 -97 Descending Houston Center
Wed 06:11:30 PM 29.7028 -95.2417 180° South 260 299 6,000  Level Houston Center
Wed 06:11:46 PM 29.6733 -95.2436 183° South 247 284 6,000  Level Houston Center
Wed 06:12:32 PM 29.6236 -95.2428 179° South 249 287 6,000  Level Houston Center
Wed 06:12:47 PM 29.6039 -95.2425 179° South 246 283 6,000 -390 Level Houston Center
Wed 06:13:49 PM 29.5425 -95.2619 195° South 233 268 5,500 -826 Descending Houston Center
Wed 06:14:36 PM 29.5075 -95.2994 223° Southwest 240 276 4,500 -1,389 Descending Houston Center
Wed 06:15:37 PM 29.4908 -95.3611 253° West 229 264 3,000 -1,220 Descending Houston Center
Wed 06:16:39 PM 29.5333 -95.4003 321° Northwest 223 257 2,000 -968 Descending Houston Center

Login

Don't have an account? Register now (free) for customized features, flight alerts, and more!